sensor_id;sensor_type;location;lat;lon;timestamp;pressure;altitude;pressure_sealevel;temperature;humidity
77939;BME280;67136;47.546;21.630;2024-02-26T00:02:13;99413.97;;;8.39;100.00
77939;BME280;67136;47.546;21.630;2024-02-26T00:05:17;99408.50;;;8.32;100.00
77939;BME280;67136;47.546;21.630;2024-02-26T00:08:19;99418.25;;;8.40;100.00
77939;BME280;67136;47.546;21.630;2024-02-26T00:11:22;99423.34;;;8.51;100.00
77939;BME280;67136;47.546;21.630;2024-02-26T00:14:24;99411.41;;;8.58;100.00
77939;BME280;67136;47.546;21.630;2024-02-26T00:17:27;99408.94;;;8.66;100.00
77939;BME280;67136;47.546;21.630;2024-02-26T00:20:33;99403.31;;;8.70;100.00
77939;BME280;67136;47.546;21.630;2024-02-26T00:23:36;99400.72;;;8.70;100.00
77939;BME280;67136;47.546;21.630;2024-02-26T00:26:38;99399.22;;;8.68;100.00
77939;BME280;67136;47.546;21.630;2024-02-26T00:29:42;99409.38;;;8.71;100.00
77939;BME280;67136;47.546;21.630;2024-02-26T00:32:45;99404.72;;;8.74;100.00
77939;BME280;67136;47.546;21.630;2024-02-26T00:35:48;99403.34;;;8.80;100.00
77939;BME280;67136;47.546;21.630;2024-02-26T00:38:51;99406.19;;;8.77;100.00
77939;BME280;67136;47.546;21.630;2024-02-26T00:41:54;99400.34;;;8.75;100.00
77939;BME280;67136;47.546;21.630;2024-02-26T00:44:56;99392.66;;;8.73;100.00
77939;BME280;67136;47.546;21.630;2024-02-26T00:47:59;99401.69;;;8.69;100.00
77939;BME280;67136;47.546;21.630;2024-02-26T00:51:07;99394.00;;;8.68;100.00
77939;BME280;67136;47.546;21.630;2024-02-26T00:54:10;99388.53;;;8.71;100.00
77939;BME280;67136;47.546;21.630;2024-02-26T00:57:12;99400.06;;;8.68;100.00
77939;BME280;67136;47.546;21.630;2024-02-26T01:00:16;99397.56;;;8.67;100.00
77939;BME280;67136;47.546;21.630;2024-02-26T01:03:19;99395.12;;;8.75;100.00
77939;BME280;67136;47.546;21.630;2024-02-26T01:06:22;99395.09;;;8.65;100.00
77939;BME280;67136;47.546;21.630;2024-02-26T01:09:25;99387.41;;;8.54;100.00
77939;BME280;67136;47.546;21.630;2024-02-26T01:12:28;99393.56;;;8.53;100.00
77939;BME280;67136;47.546;21.630;2024-02-26T01:15:30;99386.59;;;8.54;100.00
77939;BME280;67136;47.546;21.630;2024-02-26T01:18:33;99384.81;;;8.45;100.00
77939;BME280;67136;47.546;21.630;2024-02-26T01:21:36;99385.75;;;8.44;100.00
77939;BME280;67136;47.546;21.630;2024-02-26T01:24:39;99386.84;;;8.41;100.00
77939;BME280;67136;47.546;21.630;2024-02-26T01:27:41;99378.88;;;8.24;100.00
77939;BME280;67136;47.546;21.630;2024-02-26T01:30:46;99375.37;;;8.04;100.00
77939;BME280;67136;47.546;21.630;2024-02-26T01:33:49;99381.63;;;7.92;100.00
77939;BME280;67136;47.546;21.630;2024-02-26T01:36:52;99379.78;;;7.74;100.00
77939;BME280;67136;47.546;21.630;2024-02-26T01:39:54;99372.59;;;7.66;100.00
77939;BME280;67136;47.546;21.630;2024-02-26T01:42:59;99374.47;;;7.54;100.00
77939;BME280;67136;47.546;21.630;2024-02-26T01:46:02;99365.56;;;7.47;100.00
77939;BME280;67136;47.546;21.630;2024-02-26T01:49:08;99366.72;;;7.34;100.00
77939;BME280;67136;47.546;21.630;2024-02-26T01:52:14;99365.28;;;7.20;100.00
77939;BME280;67136;47.546;21.630;2024-02-26T01:55:18;99368.13;;;7.17;100.00
77939;BME280;67136;47.546;21.630;2024-02-26T01:58:22;99370.09;;;7.04;100.00
77939;BME280;67136;47.546;21.630;2024-02-26T02:01:27;99370.28;;;6.92;100.00
77939;BME280;67136;47.546;21.630;2024-02-26T02:04:30;99366.59;;;6.94;100.00
77939;BME280;67136;47.546;21.630;2024-02-26T02:07:34;99365.00;;;6.82;100.00
77939;BME280;67136;47.546;21.630;2024-02-26T02:10:38;99360.84;;;6.70;100.00
77939;BME280;67136;47.546;21.630;2024-02-26T02:13:40;99355.28;;;6.64;100.00
77939;BME280;67136;47.546;21.630;2024-02-26T02:16:43;99364.34;;;6.80;100.00
77939;BME280;67136;47.546;21.630;2024-02-26T02:19:46;99355.38;;;6.73;100.00
77939;BME280;67136;47.546;21.630;2024-02-26T02:22:49;99359.16;;;6.69;100.00
77939;BME280;67136;47.546;21.630;2024-02-26T02:25:52;99365.78;;;6.73;100.00
77939;BME280;67136;47.546;21.630;2024-02-26T02:28:55;99372.03;;;6.71;100.00
77939;BME280;67136;47.546;21.630;2024-02-26T02:31:58;99367.16;;;6.77;100.00
77939;BME280;67136;47.546;21.630;2024-02-26T02:35:02;99345.72;;;6.64;100.00
77939;BME280;67136;47.546;21.630;2024-02-26T02:38:05;99360.31;;;6.76;100.00
77939;BME280;67136;47.546;21.630;2024-02-26T02:41:07;99361.34;;;6.85;100.00
77939;BME280;67136;47.546;21.630;2024-02-26T02:44:10;99353.09;;;6.80;100.00
77939;BME280;67136;47.546;21.630;2024-02-26T02:47:12;99354.16;;;6.77;100.00
77939;BME280;67136;47.546;21.630;2024-02-26T02:50:16;99357.28;;;6.71;100.00
77939;BME280;67136;47.546;21.630;2024-02-26T02:53:18;99355.88;;;6.67;100.00
77939;BME280;67136;47.546;21.630;2024-02-26T02:56:21;99354.75;;;6.60;100.00
77939;BME280;67136;47.546;21.630;2024-02-26T02:59:25;99354.81;;;6.70;100.00
77939;BME280;67136;47.546;21.630;2024-02-26T03:02:27;99357.28;;;6.71;100.00
77939;BME280;67136;47.546;21.630;2024-02-26T03:05:32;99349.28;;;6.63;100.00
77939;BME280;67136;47.546;21.630;2024-02-26T03:08:34;99348.59;;;6.61;100.00
77939;BME280;67136;47.546;21.630;2024-02-26T03:11:40;99347.75;;;6.61;100.00
77939;BME280;67136;47.546;21.630;2024-02-26T03:14:44;99351.31;;;6.60;100.00
77939;BME280;67136;47.546;21.630;2024-02-26T03:17:46;99348.84;;;6.58;100.00
77939;BME280;67136;47.546;21.630;2024-02-26T03:20:49;99354.81;;;6.38;100.00
77939;BME280;67136;47.546;21.630;2024-02-26T03:23:52;99349.25;;;6.43;100.00
77939;BME280;67136;47.546;21.630;2024-02-26T03:26:54;99344.19;;;6.41;100.00
77939;BME280;67136;47.546;21.630;2024-02-26T03:29:58;99346.53;;;6.44;100.00
77939;BME280;67136;47.546;21.630;2024-02-26T03:33:03;99343.66;;;6.47;100.00
77939;BME280;67136;47.546;21.630;2024-02-26T03:36:06;99333.28;;;6.47;100.00
77939;BME280;67136;47.546;21.630;2024-02-26T03:39:10;99331.31;;;6.40;100.00
77939;BME280;67136;47.546;21.630;2024-02-26T03:42:14;99338.25;;;6.50;100.00
77939;BME280;67136;47.546;21.630;2024-02-26T03:45:16;99345.78;;;6.53;100.00
77939;BME280;67136;47.546;21.630;2024-02-26T03:48:19;99333.72;;;6.52;100.00
77939;BME280;67136;47.546;21.630;2024-02-26T03:51:22;99335.53;;;6.52;100.00
77939;BME280;67136;47.546;21.630;2024-02-26T03:54:25;99338.00;;;6.53;100.00
77939;BME280;67136;47.546;21.630;2024-02-26T03:57:27;99339.97;;;6.61;100.00
77939;BME280;67136;47.546;21.630;2024-02-26T04:00:30;99340.84;;;6.71;100.00
77939;BME280;67136;47.546;21.630;2024-02-26T04:03:33;99338.56;;;6.77;100.00
77939;BME280;67136;47.546;21.630;2024-02-26T04:06:36;99339.03;;;6.82;100.00
77939;BME280;67136;47.546;21.630;2024-02-26T04:09:39;99348.94;;;6.88;100.00
77939;BME280;67136;47.546;21.630;2024-02-26T04:12:42;99349.81;;;6.98;100.00
77939;BME280;67136;47.546;21.630;2024-02-26T04:15:46;99350.69;;;7.08;100.00
77939;BME280;67136;47.546;21.630;2024-02-26T04:18:49;99345.28;;;7.21;100.00
77939;BME280;67136;47.546;21.630;2024-02-26T04:21:52;99348.97;;;7.18;100.00
77939;BME280;67136;47.546;21.630;2024-02-26T04:24:54;99351.00;;;7.15;100.00
77939;BME280;67136;47.546;21.630;2024-02-26T04:27:57;99344.53;;;7.09;100.00
77939;BME280;67136;47.546;21.630;2024-02-26T04:31:00;99347.66;;;7.03;100.00
77939;BME280;67136;47.546;21.630;2024-02-26T04:34:04;99344.87;;;6.95;100.00
77939;BME280;67136;47.546;21.630;2024-02-26T04:37:06;99343.03;;;6.86;100.00
77939;BME280;67136;47.546;21.630;2024-02-26T04:40:09;99346.63;;;6.74;100.00
77939;BME280;67136;47.546;21.630;2024-02-26T04:43:12;99356.38;;;6.61;100.00
77939;BME280;67136;47.546;21.630;2024-02-26T04:46:14;99348.38;;;6.53;100.00
77939;BME280;67136;47.546;21.630;2024-02-26T04:49:17;99357.09;;;6.52;100.00
77939;BME280;67136;47.546;21.630;2024-02-26T04:52:21;99351.00;;;6.42;100.00
77939;BME280;67136;47.546;21.630;2024-02-26T04:55:24;99355.41;;;6.42;100.00
77939;BME280;67136;47.546;21.630;2024-02-26T04:58:26;99356.25;;;6.31;100.00
77939;BME280;67136;47.546;21.630;2024-02-26T05:01:29;99357.44;;;6.27;100.00
77939;BME280;67136;47.546;21.630;2024-02-26T05:04:32;99358.19;;;6.18;100.00
77939;BME280;67136;47.546;21.630;2024-02-26T05:07:40;99366.94;;;6.06;100.00
77939;BME280;67136;47.546;21.630;2024-02-26T05:10:45;99365.03;;;5.97;100.00
77939;BME280;67136;47.546;21.630;2024-02-26T05:13:48;99364.69;;;5.90;100.00
77939;BME280;67136;47.546;21.630;2024-02-26T05:16:51;99368.09;;;5.80;100.00
77939;BME280;67136;47.546;21.630;2024-02-26T05:19:53;99367.50;;;5.76;100.00
77939;BME280;67136;47.546;21.630;2024-02-26T05:22:56;99367.75;;;5.73;100.00
77939;BME280;67136;47.546;21.630;2024-02-26T05:26:01;99374.72;;;5.73;100.00
77939;BME280;67136;47.546;21.630;2024-02-26T05:29:04;99378.84;;;5.64;100.00
77939;BME280;67136;47.546;21.630;2024-02-26T05:32:06;99387.31;;;5.66;100.00
77939;BME280;67136;47.546;21.630;2024-02-26T05:35:09;99381.66;;;5.61;100.00
77939;BME280;67136;47.546;21.630;2024-02-26T05:38:14;99386.38;;;5.56;100.00
77939;BME280;67136;47.546;21.630;2024-02-26T05:41:18;99392.97;;;5.49;100.00
77939;BME280;67136;47.546;21.630;2024-02-26T05:44:26;99387.44;;;5.54;100.00
77939;BME280;67136;47.546;21.630;2024-02-26T05:47:29;99388.12;;;5.67;100.00
77939;BME280;67136;47.546;21.630;2024-02-26T05:50:32;99389.81;;;5.68;100.00
77939;BME280;67136;47.546;21.630;2024-02-26T05:53:34;99390.97;;;5.75;100.00
77939;BME280;67136;47.546;21.630;2024-02-26T05:56:37;99395.94;;;5.89;100.00
77939;BME280;67136;47.546;21.630;2024-02-26T05:59:43;99399.00;;;5.94;100.00
77939;BME280;67136;47.546;21.630;2024-02-26T06:02:45;99394.31;;;5.88;100.00
77939;BME280;67136;47.546;21.630;2024-02-26T06:05:48;99395.34;;;5.96;100.00
77939;BME280;67136;47.546;21.630;2024-02-26T06:08:51;99407.50;;;6.07;100.00
77939;BME280;67136;47.546;21.630;2024-02-26T06:11:54;99395.09;;;6.21;100.00
77939;BME280;67136;47.546;21.630;2024-02-26T06:14:57;99397.28;;;6.37;100.00
77939;BME280;67136;47.546;21.630;2024-02-26T06:18:04;99405.25;;;6.56;100.00
77939;BME280;67136;47.546;21.630;2024-02-26T06:21:10;99400.31;;;6.85;100.00
77939;BME280;67136;47.546;21.630;2024-02-26T06:24:13;99397.50;;;7.08;100.00
77939;BME280;67136;47.546;21.630;2024-02-26T06:27:16;99396.84;;;7.36;100.00
77939;BME280;67136;47.546;21.630;2024-02-26T06:30:19;99393.41;;;7.66;100.00
77939;BME280;67136;47.546;21.630;2024-02-26T06:33:22;99402.75;;;8.08;100.00
77939;BME280;67136;47.546;21.630;2024-02-26T06:36:25;99410.66;;;8.27;100.00
77939;BME280;67136;47.546;21.630;2024-02-26T06:39:28;99402.88;;;8.37;100.00
77939;BME280;67136;47.546;21.630;2024-02-26T06:42:31;99406.06;;;8.50;100.00
77939;BME280;67136;47.546;21.630;2024-02-26T06:45:33;99406.50;;;8.55;100.00
77939;BME280;67136;47.546;21.630;2024-02-26T06:48:39;99407.47;;;8.73;100.00
77939;BME280;67136;47.546;21.630;2024-02-26T06:51:52;99406.91;;;8.89;100.00
77939;BME280;67136;47.546;21.630;2024-02-26T06:55:01;99404.72;;;9.03;99.55
77939;BME280;67136;47.546;21.630;2024-02-26T06:58:13;99407.25;;;9.51;97.24
77939;BME280;67136;47.546;21.630;2024-02-26T07:01:19;99404.84;;;9.67;95.24
77939;BME280;67136;47.546;21.630;2024-02-26T07:04:22;99408.91;;;9.88;93.74
77939;BME280;67136;47.546;21.630;2024-02-26T07:07:25;99415.00;;;10.06;92.53
77939;BME280;67136;47.546;21.630;2024-02-26T07:10:28;99414.84;;;10.18;92.27
77939;BME280;67136;47.546;21.630;2024-02-26T07:13:31;99419.53;;;10.14;91.48
77939;BME280;67136;47.546;21.630;2024-02-26T07:16:33;99413.78;;;10.11;91.74
77939;BME280;67136;47.546;21.630;2024-02-26T07:19:36;99423.91;;;10.68;88.96
77939;BME280;67136;47.546;21.630;2024-02-26T07:22:38;99421.97;;;10.70;88.96
77939;BME280;67136;47.546;21.630;2024-02-26T07:25:41;99417.47;;;10.80;87.30
77939;BME280;67136;47.546;21.630;2024-02-26T07:28:47;99422.06;;;11.90;82.40
77939;BME280;67136;47.546;21.630;2024-02-26T07:31:50;99415.63;;;12.52;78.42
77939;BME280;67136;47.546;21.630;2024-02-26T07:34:52;99413.34;;;13.85;73.65
77939;BME280;67136;47.546;21.630;2024-02-26T07:37:55;99410.31;;;14.73;68.70
77939;BME280;67136;47.546;21.630;2024-02-26T07:40:58;99422.50;;;15.20;66.95
77939;BME280;67136;47.546;21.630;2024-02-26T07:44:05;99419.34;;;16.19;62.38
77939;BME280;67136;47.546;21.630;2024-02-26T07:47:09;99420.28;;;15.83;62.71
77939;BME280;67136;47.546;21.630;2024-02-26T07:50:12;99437.63;;;17.07;58.15
77939;BME280;67136;47.546;21.630;2024-02-26T07:53:15;99431.19;;;16.09;60.54
77939;BME280;67136;47.546;21.630;2024-02-26T07:56:18;99423.56;;;16.14;60.20
77939;BME280;67136;47.546;21.630;2024-02-26T07:59:21;99430.94;;;16.04;60.63
77939;BME280;67136;47.546;21.630;2024-02-26T08:02:23;99417.34;;;15.26;62.32
77939;BME280;67136;47.546;21.630;2024-02-26T08:05:30;99427.59;;;15.44;62.06
77939;BME280;67136;47.546;21.630;2024-02-26T08:08:33;99427.47;;;15.89;61.70
77939;BME280;67136;47.546;21.630;2024-02-26T08:11:35;99430.13;;;16.68;58.40
77939;BME280;67136;47.546;21.630;2024-02-26T08:14:38;99436.31;;;17.87;54.74
77939;BME280;67136;47.546;21.630;2024-02-26T08:17:42;99441.06;;;17.22;54.60
77939;BME280;67136;47.546;21.630;2024-02-26T08:20:45;99445.19;;;16.89;54.69
77939;BME280;67136;47.546;21.630;2024-02-26T08:23:49;99438.50;;;16.72;54.84
77939;BME280;67136;47.546;21.630;2024-02-26T08:26:51;99441.47;;;17.25;53.13
77939;BME280;67136;47.546;21.630;2024-02-26T08:29:54;99440.53;;;17.54;52.50
77939;BME280;67136;47.546;21.630;2024-02-26T08:32:59;99445.84;;;18.16;51.65
77939;BME280;67136;47.546;21.630;2024-02-26T08:36:05;99457.31;;;18.29;50.42
77939;BME280;67136;47.546;21.630;2024-02-26T08:39:11;99455.38;;;18.98;48.37
77939;BME280;67136;47.546;21.630;2024-02-26T08:42:16;99449.91;;;19.19;48.61
77939;BME280;67136;47.546;21.630;2024-02-26T08:45:19;99449.50;;;19.81;45.16
77939;BME280;67136;47.546;21.630;2024-02-26T08:48:22;99447.03;;;19.14;46.25
77939;BME280;67136;47.546;21.630;2024-02-26T08:51:25;99445.06;;;19.68;45.10
77939;BME280;67136;47.546;21.630;2024-02-26T08:54:28;99443.16;;;20.02;44.55
77939;BME280;67136;47.546;21.630;2024-02-26T08:57:31;99437.84;;;19.10;46.53
77939;BME280;67136;47.546;21.630;2024-02-26T09:00:36;99433.62;;;18.55;47.44
77939;BME280;67136;47.546;21.630;2024-02-26T09:03:39;99440.97;;;19.33;45.84
77939;BME280;67136;47.546;21.630;2024-02-26T09:06:42;99426.03;;;17.71;49.93
77939;BME280;67136;47.546;21.630;2024-02-26T09:09:45;99427.22;;;18.37;48.29
77939;BME280;67136;47.546;21.630;2024-02-26T09:12:48;99429.03;;;18.90;48.30
77939;BME280;67136;47.546;21.630;2024-02-26T09:15:50;99435.50;;;18.21;48.55
77939;BME280;67136;47.546;21.630;2024-02-26T09:18:53;99440.94;;;18.13;48.69
77939;BME280;67136;47.546;21.630;2024-02-26T09:21:56;99438.09;;;18.55;47.90
77939;BME280;67136;47.546;21.630;2024-02-26T09:25:00;99436.94;;;17.62;49.83
77939;BME280;67136;47.546;21.630;2024-02-26T09:28:03;99434.31;;;18.30;48.44
77939;BME280;67136;47.546;21.630;2024-02-26T09:31:06;99433.84;;;18.54;47.90
77939;BME280;67136;47.546;21.630;2024-02-26T09:34:09;99442.81;;;18.53;47.94
77939;BME280;67136;47.546;21.630;2024-02-26T09:37:12;99436.84;;;19.18;46.66
77939;BME280;67136;47.546;21.630;2024-02-26T09:40:23;99436.81;;;18.92;45.77
77939;BME280;67136;47.546;21.630;2024-02-26T09:43:28;99445.28;;;18.61;47.05
77939;BME280;67136;47.546;21.630;2024-02-26T09:46:36;99432.59;;;18.50;47.18
77939;BME280;67136;47.546;21.630;2024-02-26T09:49:41;99435.09;;;18.24;48.44
77939;BME280;67136;47.546;21.630;2024-02-26T09:52:44;99435.59;;;18.94;47.36
77939;BME280;67136;47.546;21.630;2024-02-26T09:55:48;99453.63;;;19.51;45.69
77939;BME280;67136;47.546;21.630;2024-02-26T09:58:52;99444.19;;;19.22;46.17
77939;BME280;67136;47.546;21.630;2024-02-26T10:01:58;99440.31;;;19.97;45.48
77939;BME280;67136;47.546;21.630;2024-02-26T10:05:02;99458.38;;;18.82;46.66
77939;BME280;67136;47.546;21.630;2024-02-26T10:08:09;99441.25;;;18.31;48.14
77939;BME280;67136;47.546;21.630;2024-02-26T10:11:14;99444.44;;;18.54;48.23
77939;BME280;67136;47.546;21.630;2024-02-26T10:14:17;99438.38;;;18.73;47.07
77939;BME280;67136;47.546;21.630;2024-02-26T10:17:20;99440.16;;;19.46;45.45
77939;BME280;67136;47.546;21.630;2024-02-26T10:20:23;99447.72;;;20.52;43.28
77939;BME280;67136;47.546;21.630;2024-02-26T10:23:26;99455.88;;;19.67;44.37
77939;BME280;67136;47.546;21.630;2024-02-26T10:26:32;99443.34;;;20.07;44.49
77939;BME280;67136;47.546;21.630;2024-02-26T10:29:35;99448.31;;;19.38;44.89
77939;BME280;67136;47.546;21.630;2024-02-26T10:32:38;99439.25;;;20.24;43.62
77939;BME280;67136;47.546;21.630;2024-02-26T10:35:47;99439.34;;;19.45;45.47
77939;BME280;67136;47.546;21.630;2024-02-26T10:38:50;99434.22;;;19.37;45.57
77939;BME280;67136;47.546;21.630;2024-02-26T10:41:56;99425.06;;;19.46;45.14
77939;BME280;67136;47.546;21.630;2024-02-26T10:44:59;99425.47;;;19.43;45.01
77939;BME280;67136;47.546;21.630;2024-02-26T10:48:04;99422.31;;;20.12;44.01
77939;BME280;67136;47.546;21.630;2024-02-26T10:51:10;99424.94;;;21.62;40.34
77939;BME280;67136;47.546;21.630;2024-02-26T10:54:15;99419.41;;;21.15;40.35
77939;BME280;67136;47.546;21.630;2024-02-26T10:57:18;99433.53;;;20.14;42.52
77939;BME280;67136;47.546;21.630;2024-02-26T11:00:22;99416.84;;;20.57;42.04
77939;BME280;67136;47.546;21.630;2024-02-26T11:03:25;99419.41;;;21.15;41.11
77939;BME280;67136;47.546;21.630;2024-02-26T11:06:29;99419.41;;;20.77;41.45
77939;BME280;67136;47.546;21.630;2024-02-26T11:09:32;99406.97;;;23.14;36.82
77939;BME280;67136;47.546;21.630;2024-02-26T11:12:36;99409.81;;;22.89;36.84
77939;BME280;67136;47.546;21.630;2024-02-26T11:15:40;99405.06;;;21.89;38.58
77939;BME280;67136;47.546;21.630;2024-02-26T11:18:46;99401.63;;;22.73;37.97
77939;BME280;67136;47.546;21.630;2024-02-26T11:21:50;99401.75;;;22.30;38.23
77939;BME280;67136;47.546;21.630;2024-02-26T11:24:55;99394.34;;;22.32;38.44
77939;BME280;67136;47.546;21.630;2024-02-26T11:28:23;99394.81;;;23.18;36.74
77939;BME280;67136;47.546;21.630;2024-02-26T11:31:27;99391.03;;;23.95;35.95
77939;BME280;67136;47.546;21.630;2024-02-26T11:34:30;99394.03;;;23.29;36.84
77939;BME280;67136;47.546;21.630;2024-02-26T11:37:33;99395.16;;;22.33;38.27
77939;BME280;67136;47.546;21.630;2024-02-26T11:40:41;99396.19;;;22.13;39.01
77939;BME280;67136;47.546;21.630;2024-02-26T11:44:05;99393.47;;;21.84;39.13
77939;BME280;67136;47.546;21.630;2024-02-26T11:47:19;99390.87;;;21.28;40.29
77939;BME280;67136;47.546;21.630;2024-02-26T11:50:42;99385.53;;;21.77;40.07
77939;BME280;67136;47.546;21.630;2024-02-26T11:53:46;99377.06;;;20.51;42.56
77939;BME280;67136;47.546;21.630;2024-02-26T11:56:51;99382.56;;;22.58;39.40
77939;BME280;67136;47.546;21.630;2024-02-26T12:00:10;99390.94;;;24.01;35.77
77939;BME280;67136;47.546;21.630;2024-02-26T12:03:13;99377.59;;;25.14;33.99
77939;BME280;67136;47.546;21.630;2024-02-26T12:06:21;99368.78;;;23.02;37.02
77939;BME280;67136;47.546;21.630;2024-02-26T12:09:34;99366.78;;;23.73;35.93
77939;BME280;67136;47.546;21.630;2024-02-26T12:12:39;99368.91;;;20.77;41.34
77939;BME280;67136;47.546;21.630;2024-02-26T12:15:54;99370.28;;;20.86;41.95
77939;BME280;67136;47.546;21.630;2024-02-26T12:18:59;99361.13;;;19.94;43.75
77939;BME280;67136;47.546;21.630;2024-02-26T12:22:02;99361.41;;;19.46;45.44
77939;BME280;67136;47.546;21.630;2024-02-26T12:25:05;99354.69;;;19.11;46.87
77939;BME280;67136;47.546;21.630;2024-02-26T12:28:08;99358.53;;;19.54;46.32
77939;BME280;67136;47.546;21.630;2024-02-26T12:31:10;99358.94;;;19.64;45.35
77939;BME280;67136;47.546;21.630;2024-02-26T12:34:13;99352.69;;;20.85;42.74
77939;BME280;67136;47.546;21.630;2024-02-26T12:37:16;99345.06;;;19.75;45.19
77939;BME280;67136;47.546;21.630;2024-02-26T12:40:19;99350.56;;;20.38;43.91
77939;BME280;67136;47.546;21.630;2024-02-26T12:43:22;99347.72;;;19.75;44.95
77939;BME280;67136;47.546;21.630;2024-02-26T12:46:25;99343.63;;;21.48;41.38
77939;BME280;67136;47.546;21.630;2024-02-26T12:49:27;99341.31;;;22.90;38.63
77939;BME280;67136;47.546;21.630;2024-02-26T12:52:35;99357.38;;;26.32;33.14
77939;BME280;67136;47.546;21.630;2024-02-26T12:55:38;99351.19;;;27.07;31.12
77939;BME280;67136;47.546;21.630;2024-02-26T12:58:43;99342.12;;;25.73;32.05
77939;BME280;67136;47.546;21.630;2024-02-26T13:01:46;99344.84;;;27.96;30.14
77939;BME280;67136;47.546;21.630;2024-02-26T13:04:50;99331.59;;;24.84;33.86
77939;BME280;67136;47.546;21.630;2024-02-26T13:07:58;99330.97;;;22.23;38.21
77939;BME280;67136;47.546;21.630;2024-02-26T13:11:14;99339.44;;;22.90;37.18
77939;BME280;67136;47.546;21.630;2024-02-26T13:14:20;99335.91;;;23.54;35.40
77939;BME280;67136;47.546;21.630;2024-02-26T13:17:23;99320.25;;;22.41;37.68
77939;BME280;67136;47.546;21.630;2024-02-26T13:20:30;99327.56;;;24.53;34.64
77939;BME280;67136;47.546;21.630;2024-02-26T13:23:34;99322.59;;;22.49;37.49
77939;BME280;67136;47.546;21.630;2024-02-26T13:26:37;99320.00;;;21.76;38.93
77939;BME280;67136;47.546;21.630;2024-02-26T13:29:41;99321.81;;;20.59;40.95
77939;BME280;67136;47.546;21.630;2024-02-26T13:32:43;99323.31;;;19.98;42.65
77939;BME280;67136;47.546;21.630;2024-02-26T13:35:46;99324.25;;;19.59;43.30
77939;BME280;67136;47.546;21.630;2024-02-26T13:38:53;99312.25;;;19.50;43.68
77939;BME280;67136;47.546;21.630;2024-02-26T13:41:57;99314.72;;;20.16;42.91
77939;BME280;67136;47.546;21.630;2024-02-26T13:44:59;99319.28;;;21.02;40.57
77939;BME280;67136;47.546;21.630;2024-02-26T13:48:07;99325.00;;;20.74;41.30
77939;BME280;67136;47.546;21.630;2024-02-26T13:51:10;99327.16;;;21.15;39.51
77939;BME280;67136;47.546;21.630;2024-02-26T13:54:14;99334.03;;;20.67;39.94
77939;BME280;67136;47.546;21.630;2024-02-26T13:57:18;99328.03;;;21.09;39.90
77939;BME280;67136;47.546;21.630;2024-02-26T14:00:21;99323.81;;;21.02;39.42
77939;BME280;67136;47.546;21.630;2024-02-26T14:03:24;99341.19;;;20.29;40.63
77939;BME280;67136;47.546;21.630;2024-02-26T14:06:28;99328.59;;;20.05;41.82
77939;BME280;67136;47.546;21.630;2024-02-26T14:09:31;99324.84;;;20.32;42.03
77939;BME280;67136;47.546;21.630;2024-02-26T14:12:49;99334.44;;;19.62;43.07
77939;BME280;67136;47.546;21.630;2024-02-26T14:15:53;99332.03;;;19.54;42.43
77939;BME280;67136;47.546;21.630;2024-02-26T14:19:00;99341.84;;;19.21;43.42
77939;BME280;67136;47.546;21.630;2024-02-26T14:22:03;99340.53;;;19.76;42.71
77939;BME280;67136;47.546;21.630;2024-02-26T14:25:06;99342.88;;;20.10;41.77
77939;BME280;67136;47.546;21.630;2024-02-26T14:28:12;99344.47;;;21.49;39.21
77939;BME280;67136;47.546;21.630;2024-02-26T14:31:23;99346.47;;;21.04;40.44
77939;BME280;67136;47.546;21.630;2024-02-26T14:34:27;99353.06;;;22.23;38.38
77939;BME280;67136;47.546;21.630;2024-02-26T14:37:30;99356.13;;;20.92;39.84
77939;BME280;67136;47.546;21.630;2024-02-26T14:40:33;99347.13;;;21.00;39.86
77939;BME280;67136;47.546;21.630;2024-02-26T14:48:04;99341.00;;;21.66;38.26
77939;BME280;67136;47.546;21.630;2024-02-26T14:51:10;99333.78;;;21.06;39.89
77939;BME280;67136;47.546;21.630;2024-02-26T14:54:13;99347.44;;;23.02;36.17
77939;BME280;67136;47.546;21.630;2024-02-26T14:57:17;99339.56;;;21.88;38.06
77939;BME280;67136;47.546;21.630;2024-02-26T15:00:19;99335.63;;;19.79;42.65
77939;BME280;67136;47.546;21.630;2024-02-26T15:03:22;99335.50;;;19.48;43.89
77939;BME280;67136;47.546;21.630;2024-02-26T15:06:25;99339.78;;;19.23;44.67
77939;BME280;67136;47.546;21.630;2024-02-26T15:09:29;99334.75;;;19.99;43.26
77939;BME280;67136;47.546;21.630;2024-02-26T15:12:32;99336.53;;;19.47;43.79
77939;BME280;67136;47.546;21.630;2024-02-26T15:15:35;99334.50;;;19.36;44.32
77939;BME280;67136;47.546;21.630;2024-02-26T15:18:41;99343.16;;;19.96;43.19
77939;BME280;67136;47.546;21.630;2024-02-26T15:21:45;99338.97;;;19.62;43.71
77939;BME280;67136;47.546;21.630;2024-02-26T15:24:50;99347.91;;;19.81;43.33
77939;BME280;67136;47.546;21.630;2024-02-26T15:27:55;99355.06;;;19.67;43.57
77939;BME280;67136;47.546;21.630;2024-02-26T15:30:58;99352.03;;;19.44;43.51
77939;BME280;67136;47.546;21.630;2024-02-26T15:34:00;99346.75;;;19.50;44.07
77939;BME280;67136;47.546;21.630;2024-02-26T15:37:03;99332.88;;;19.48;43.86
77939;BME280;67136;47.546;21.630;2024-02-26T15:40:07;99346.47;;;18.67;45.93
77939;BME280;67136;47.546;21.630;2024-02-26T15:43:09;99350.69;;;18.42;46.73
77939;BME280;67136;47.546;21.630;2024-02-26T15:46:16;99353.81;;;18.18;47.42
77939;BME280;67136;47.546;21.630;2024-02-26T15:49:25;99350.28;;;17.98;47.80
77939;BME280;67136;47.546;21.630;2024-02-26T15:52:28;99354.44;;;17.73;48.49
77939;BME280;67136;47.546;21.630;2024-02-26T15:55:32;99356.00;;;17.61;48.86
77939;BME280;67136;47.546;21.630;2024-02-26T15:58:34;99357.78;;;17.32;49.60
77939;BME280;67136;47.546;21.630;2024-02-26T16:01:38;99353.78;;;17.15;50.62
77939;BME280;67136;47.546;21.630;2024-02-26T16:04:41;99351.00;;;16.96;51.29
77939;BME280;67136;47.546;21.630;2024-02-26T16:07:53;99348.66;;;16.65;52.32